Time;durP1;ratioP1;P1;durP2;ratioP2;P2;SDS_P1;SDS_P2;PMS_P1;PMS_P2;Temp;Humidity;BMP_temperature;BMP_pressure;BME280_temperature;BME280_humidity;BME280_pressure;Samples;Min_cycle;Max_cycle;Signal;HPM_P1;HPM_P2
2021/12/08 00:00:36;;;;;;;11.27;3.75;;;3.90;99.90;;;;;;5073098;28;20132;-71
2021/12/08 00:03:04;;;;;;;9.30;3.47;;;3.90;99.90;;;;;;5082619;28;20064;-72
2021/12/08 00:05:30;;;;;;;8.93;3.78;;;3.90;99.90;;;;;;5093574;28;20123;-72
2021/12/08 00:07:56;;;;;;;9.50;3.40;;;3.90;99.90;;;;;;5093807;28;20127;-73
2021/12/08 00:13:04;;;;;;;9.57;3.75;;;4.00;99.90;;;;;;5093361;28;20083;-72
2021/12/08 00:15:31;;;;;;;8.52;3.42;;;4.00;99.90;;;;;;5093254;28;20128;-72
2021/12/08 00:17:57;;;;;;;8.40;3.50;;;3.90;99.90;;;;;;5093165;28;20374;-72
2021/12/08 00:20:27;;;;;;;7.40;3.50;;;3.90;99.90;;;;;;5093695;28;20059;-72
2021/12/08 00:22:52;;;;;;;8.93;3.40;;;3.90;99.90;;;;;;5092135;28;20118;-71
2021/12/08 00:25:18;;;;;;;7.97;3.60;;;3.90;99.90;;;;;;5092998;28;20132;-72
2021/12/08 00:27:43;;;;;;;8.68;3.15;;;3.90;99.90;;;;;;5093728;28;20123;-71
2021/12/08 00:30:09;;;;;;;10.13;3.80;;;4.00;99.90;;;;;;5092615;28;20039;-72
2021/12/08 00:32:36;;;;;;;11.05;3.85;;;4.00;99.90;;;;;;5093853;28;20040;-72
2021/12/08 00:35:04;;;;;;;7.75;3.30;;;3.90;99.90;;;;;;5092086;28;20048;-71
2021/12/08 00:37:30;;;;;;;9.38;3.42;;;3.90;99.90;;;;;;5093273;28;20492;-72
2021/12/08 00:39:56;;;;;;;8.15;3.83;;;3.90;99.90;;;;;;5093609;28;20079;-71
2021/12/08 00:42:21;;;;;;;8.50;3.58;;;3.90;99.90;;;;;;5093592;28;20063;-71
2021/12/08 00:44:47;;;;;;;8.13;3.72;;;3.90;99.90;;;;;;5093112;28;20024;-71
2021/12/08 00:47:13;;;;;;;10.75;4.00;;;3.90;99.90;;;;;;5093429;28;20493;-71
2021/12/08 00:49:40;;;;;;;9.05;3.70;;;3.90;99.90;;;;;;5094668;28;20079;-72
2021/12/08 00:52:07;;;;;;;8.63;4.05;;;3.90;99.90;;;;;;5097263;28;20048;-72
2021/12/08 00:54:33;;;;;;;10.57;3.80;;;3.90;99.90;;;;;;5076868;28;20108;-70
2021/12/08 00:57:00;;;;;;;11.27;4.72;;;3.90;99.90;;;;;;5077013;28;20108;-71
2021/12/08 00:59:26;;;;;;;11.00;4.32;;;3.80;99.90;;;;;;5089998;28;20047;-70
2021/12/08 01:01:51;;;;;;;7.93;4.13;;;3.80;99.90;;;;;;5096778;28;20040;-71
2021/12/08 01:04:17;;;;;;;9.60;3.97;;;3.80;99.90;;;;;;5096062;28;20032;-71
2021/12/08 01:06:44;;;;;;;7.78;3.88;;;3.90;99.90;;;;;;5096848;28;20075;-72
2021/12/08 01:09:12;;;;;;;9.57;4.10;;;3.90;99.90;;;;;;5096806;28;20480;-71
2021/12/08 01:11:38;;;;;;;10.15;4.57;;;3.90;99.90;;;;;;5096883;28;20119;-71
2021/12/08 01:14:05;;;;;;;12.07;4.30;;;3.90;99.90;;;;;;5096662;28;20032;-71
2021/12/08 01:16:31;;;;;;;8.93;4.32;;;3.90;99.90;;;;;;5095819;28;20518;-71
2021/12/08 01:18:58;;;;;;;10.52;4.38;;;3.90;99.90;;;;;;5096660;28;20075;-71
2021/12/08 01:21:23;;;;;;;8.48;4.50;;;3.90;99.90;;;;;;5095574;28;20475;-72
2021/12/08 01:23:49;;;;;;;9.48;4.10;;;3.90;99.90;;;;;;5095404;28;20111;-72
2021/12/08 01:26:15;;;;;;;9.05;4.35;;;3.90;99.90;;;;;;5096293;28;20114;-72
2021/12/08 01:28:41;;;;;;;8.15;4.03;;;3.90;99.90;;;;;;5096687;28;20042;-72
2021/12/08 01:31:06;;;;;;;14.73;5.18;;;3.90;99.90;;;;;;5096353;28;20122;-72
2021/12/08 01:33:35;;;;;;;8.45;3.92;;;3.90;99.90;;;;;;5095197;28;20067;-72
2021/12/08 01:36:02;;;;;;;10.38;4.95;;;4.00;99.90;;;;;;5096085;28;20036;-72
2021/12/08 01:38:28;;;;;;;11.63;4.82;;;3.90;99.90;;;;;;5096334;28;20357;-72
2021/12/08 01:40:54;;;;;;;10.75;4.90;;;4.00;99.90;;;;;;5096154;28;20361;-72
2021/12/08 01:43:26;;;;;;;9.57;4.50;;;4.00;99.90;;;;;;5096156;28;20036;-72
2021/12/08 01:46:02;;;;;;;9.93;4.40;;;4.00;99.90;;;;;;5095085;28;20477;-72
2021/12/08 01:48:32;;;;;;;10.25;4.40;;;4.00;99.90;;;;;;5095867;28;20518;-71
2021/12/08 01:51:11;;;;;;;12.82;4.53;;;4.00;99.90;;;;;;5095953;28;20350;-71
2021/12/08 01:53:42;;;;;;;8.35;4.78;;;4.00;99.90;;;;;;5095977;28;20047;-71
2021/12/08 01:56:09;;;;;;;11.70;4.53;;;4.00;99.90;;;;;;5095386;28;20040;-72
2021/12/08 01:58:35;;;;;;;10.82;4.82;;;4.10;99.90;;;;;;5095880;28;20052;-72
2021/12/08 02:01:07;;;;;;;11.52;4.85;;;4.10;99.90;;;;;;5095576;28;20036;-72
2021/12/08 02:03:34;;;;;;;10.00;4.80;;;4.00;99.90;;;;;;5095770;28;20032;-72
2021/12/08 02:06:02;;;;;;;9.35;5.05;;;4.10;99.90;;;;;;5095249;28;20495;-72
2021/12/08 02:08:28;;;;;;;9.63;5.20;;;4.00;99.90;;;;;;5095771;28;20040;-72
2021/12/08 02:10:54;;;;;;;9.98;5.10;;;4.10;99.90;;;;;;5095436;28;20051;-72
2021/12/08 02:13:20;;;;;;;9.32;5.93;;;4.10;99.90;;;;;;5095428;28;20040;-72
2021/12/08 02:15:47;;;;;;;8.52;5.30;;;4.20;99.90;;;;;;5095414;28;20047;-72
2021/12/08 02:18:15;;;;;;;10.70;5.70;;;4.20;99.90;;;;;;5094485;28;20393;-71
2021/12/08 02:20:46;;;;;;;9.55;5.63;;;4.20;99.90;;;;;;5095194;28;20444;-72
2021/12/08 02:23:13;;;;;;;12.23;5.30;;;4.20;99.90;;;;;;5095830;28;20046;-71
2021/12/08 02:25:39;;;;;;;9.65;5.40;;;4.20;99.90;;;;;;5095376;28;20050;-72
2021/12/08 02:28:07;;;;;;;11.15;5.82;;;4.30;99.90;;;;;;5096224;28;20131;-72
2021/12/08 02:49:34;;;;;;;;;;;4.50;99.90;;;;;;5096265;28;20422;-71
2021/12/08 02:52:01;;;;;;;9.57;5.75;;;4.40;99.90;;;;;;5095621;28;19930;-72
2021/12/08 02:54:34;;;;;;;11.13;5.75;;;4.50;99.90;;;;;;5095236;28;20484;-71
2021/12/08 02:56:59;;;;;;;8.68;5.78;;;4.50;99.90;;;;;;5094892;28;20101;-72
2021/12/08 02:59:25;;;;;;;8.85;6.00;;;4.60;99.90;;;;;;5094895;28;20040;-71
2021/12/08 03:01:51;;;;;;;9.35;6.20;;;4.60;99.90;;;;;;5094307;28;20046;-71
2021/12/08 03:04:17;;;;;;;11.05;6.55;;;4.60;99.90;;;;;;5076972;28;20074;-72
2021/12/08 03:06:42;;;;;;;13.50;6.60;;;4.60;99.90;;;;;;5094397;28;20055;-71
2021/12/08 03:09:08;;;;;;;9.75;6.18;;;4.60;99.90;;;;;;5095239;28;20036;-72
2021/12/08 03:11:35;;;;;;;11.40;7.22;;;4.60;99.90;;;;;;5093641;28;20038;-71
2021/12/08 03:14:08;;;;;;;10.68;6.60;;;4.60;99.90;;;;;;5094240;28;20401;-71
2021/12/08 03:16:37;;;;;;;11.15;7.03;;;4.70;99.90;;;;;;5093854;28;20143;-71
2021/12/08 03:19:04;;;;;;;13.43;7.18;;;4.60;99.90;;;;;;5076881;28;20043;-71
2021/12/08 03:21:32;;;;;;;11.60;7.22;;;4.70;99.90;;;;;;5093587;28;20385;-71
2021/12/08 03:24:19;;;;;;;11.75;7.47;;;4.70;99.90;;;;;;5093624;28;20086;-71
2021/12/08 03:26:53;;;;;;;14.20;8.00;;;4.80;99.90;;;;;;5094258;28;20109;-71
2021/12/08 03:31:51;;;;;;;11.80;7.70;;;4.80;99.90;;;;;;5093753;28;20131;-71
2021/12/08 03:34:20;;;;;;;14.98;7.78;;;4.80;99.90;;;;;;5092962;28;20047;-72
2021/12/08 03:36:46;;;;;;;12.02;8.00;;;4.90;99.90;;;;;;5093973;28;20040;-71
2021/12/08 03:39:12;;;;;;;11.50;7.30;;;4.90;99.90;;;;;;5094968;28;20059;-72
2021/12/08 03:41:38;;;;;;;12.68;7.60;;;4.80;99.90;;;;;;5093902;28;20122;-72
2021/12/08 03:44:05;;;;;;;10.38;7.35;;;4.80;99.90;;;;;;5093275;28;20411;-71
2021/12/08 03:46:35;;;;;;;11.90;7.28;;;4.90;99.90;;;;;;5076044;28;20036;-72
2021/12/08 03:49:05;;;;;;;10.80;6.93;;;4.90;99.90;;;;;;5094341;28;20059;-72
2021/12/08 03:51:31;;;;;;;12.57;7.82;;;5.00;99.90;;;;;;5093421;28;20407;-72
2021/12/08 03:53:56;;;;;;;11.95;7.20;;;5.00;99.90;;;;;;5076037;28;20044;-72
2021/12/08 03:56:22;;;;;;;10.30;7.10;;;4.90;99.90;;;;;;5094578;28;20146;-72
2021/12/08 03:58:48;;;;;;;10.88;7.60;;;5.00;99.90;;;;;;5093610;28;20040;-72
2021/12/08 04:01:14;;;;;;;12.13;7.40;;;5.10;99.90;;;;;;5093446;28;20039;-72
2021/12/08 04:03:47;;;;;;;12.07;7.43;;;5.20;99.90;;;;;;5076203;28;20044;-72
2021/12/08 04:06:26;;;;;;;11.60;6.90;;;5.10;99.90;;;;;;5092900;28;20052;-72
2021/12/08 04:08:56;;;;;;;11.75;6.43;;;5.10;99.90;;;;;;5094073;28;20038;-72
2021/12/08 04:11:22;;;;;;;9.75;6.65;;;5.20;99.90;;;;;;5076462;28;20441;-71
2021/12/08 04:13:53;;;;;;;10.60;6.30;;;5.20;99.90;;;;;;5093019;28;20043;-71
2021/12/08 04:16:24;;;;;;;12.57;6.53;;;5.20;99.90;;;;;;5093439;28;20048;-71
2021/12/08 04:18:50;;;;;;;13.75;7.07;;;5.20;99.90;;;;;;5093120;28;20102;-72
2021/12/08 04:21:17;;;;;;;10.00;6.53;;;5.20;99.90;;;;;;5093000;28;20342;-72
2021/12/08 04:23:44;;;;;;;11.02;6.15;;;5.20;99.90;;;;;;5093763;28;20055;-71
2021/12/08 04:26:17;;;;;;;10.73;6.97;;;5.20;99.90;;;;;;5098052;28;20044;-72
2021/12/08 04:28:44;;;;;;;11.05;6.75;;;5.20;99.90;;;;;;5080385;28;20044;-72
2021/12/08 04:31:18;;;;;;;11.00;6.25;;;5.20;99.90;;;;;;5097120;28;20094;-72
2021/12/08 04:33:45;;;;;;;;;;;5.20;99.90;;;;;;5098028;28;20051;-72
2021/12/08 04:36:14;;;;;;;11.48;6.25;;;5.20;99.90;;;;;;5096518;28;20194;-71
2021/12/08 04:38:44;;;;;;;10.40;6.60;;;5.20;99.90;;;;;;5097882;28;20044;-71
2021/12/08 04:41:17;;;;;;;11.48;6.32;;;5.10;99.90;;;;;;5096855;28;20048;-72
2021/12/08 04:44:12;;;;;;;14.88;7.13;;;5.00;99.90;;;;;;5096630;28;20123;-71
2021/12/08 04:52:30;;;;;;;12.38;6.60;;;5.00;99.90;;;;;;5097584;28;20051;-71
2021/12/08 05:04:10;;;;;;;9.43;6.18;;;4.80;99.90;;;;;;5086144;28;20040;-71
2021/12/08 05:09:30;;;;;;;10.65;5.85;;;4.80;99.90;;;;;;5097282;28;20105;-71
2021/12/08 05:12:01;;;;;;;11.57;6.43;;;4.80;99.90;;;;;;5096704;28;20048;-71
2021/12/08 05:14:35;;;;;;;12.20;6.22;;;4.80;99.90;;;;;;5096596;28;20043;-71
2021/12/08 05:17:08;;;;;;;12.63;6.78;;;4.80;99.90;;;;;;5095716;28;20052;-70
2021/12/08 05:19:34;;;;;;;12.38;6.13;;;4.80;99.90;;;;;;5096799;28;20377;-71
2021/12/08 05:22:09;;;;;;;10.20;5.97;;;4.70;99.90;;;;;;5097086;28;20040;-71
2021/12/08 05:24:38;;;;;;;12.85;5.93;;;4.80;99.90;;;;;;5097092;28;20047;-71
2021/12/08 05:27:29;;;;;;;11.45;5.93;;;4.70;99.90;;;;;;5096477;28;20116;-71
2021/12/08 05:30:09;;;;;;;10.15;5.90;;;4.80;99.90;;;;;;5088262;28;20048;-71
2021/12/08 05:32:35;;;;;;;9.95;6.05;;;4.80;99.90;;;;;;5095730;28;20350;-69
2021/12/08 05:35:02;;;;;;;12.25;5.85;;;4.70;99.90;;;;;;5094786;28;20043;-69
2021/12/08 05:37:29;;;;;;;11.13;5.72;;;4.70;99.90;;;;;;5096608;28;20044;-69
2021/12/08 05:39:55;;;;;;;12.57;6.45;;;4.70;99.90;;;;;;5096773;28;20062;-70
2021/12/08 05:42:29;;;;;;;11.00;5.57;;;4.70;99.90;;;;;;5096198;28;20449;-70
2021/12/08 05:44:55;;;;;;;10.43;5.55;;;4.70;99.90;;;;;;5096538;28;20106;-70
2021/12/08 05:47:26;;;;;;;8.27;5.30;;;4.70;99.90;;;;;;5095270;28;20044;-70
2021/12/08 05:49:54;;;;;;;10.02;5.50;;;4.70;99.90;;;;;;5078982;28;20065;-69
2021/12/08 05:52:20;;;;;;;8.57;5.22;;;4.60;99.90;;;;;;5077058;28;20036;-69
2021/12/08 05:54:51;;;;;;;9.35;5.25;;;4.60;99.90;;;;;;5095485;28;20119;-69
2021/12/08 05:57:46;;;;;;;10.68;5.45;;;4.70;99.90;;;;;;5077426;28;20044;-69
2021/12/08 06:00:29;;;;;;;13.27;4.90;;;4.60;99.90;;;;;;5073971;28;20175;-68
2021/12/08 06:02:56;;;;;;;8.13;4.63;;;4.60;99.90;;;;;;5080546;28;20039;-69
2021/12/08 06:05:23;;;;;;;11.45;5.00;;;4.60;99.90;;;;;;5078434;28;20122;-69
2021/12/08 06:07:49;;;;;;;8.35;4.78;;;4.60;99.90;;;;;;5077969;28;20044;-69
2021/12/08 06:10:19;;;;;;;9.68;5.30;;;4.60;99.90;;;;;;5082149;28;20044;-70
2021/12/08 06:12:46;;;;;;;10.95;4.95;;;4.60;99.90;;;;;;5089740;28;20068;-70
2021/12/08 06:15:12;;;;;;;8.55;4.82;;;4.60;99.90;;;;;;5079233;28;20049;-69
2021/12/08 06:17:38;;;;;;;13.73;4.85;;;4.60;99.90;;;;;;5080081;28;20083;-69
2021/12/08 06:20:07;;;;;;;12.27;5.13;;;4.60;99.90;;;;;;5075541;28;20060;-69
2021/12/08 06:22:33;;;;;;;9.70;4.50;;;4.60;99.90;;;;;;5083210;28;20036;-67
2021/12/08 06:24:59;;;;;;;11.45;4.47;;;4.60;99.90;;;;;;5095558;28;20032;-68
2021/12/08 06:27:25;;;;;;;7.75;4.20;;;4.60;99.90;;;;;;5093122;28;20052;-71
2021/12/08 06:29:51;;;;;;;7.85;4.50;;;4.70;99.90;;;;;;5095989;28;20032;-70
2021/12/08 06:32:17;;;;;;;12.48;5.07;;;4.70;99.90;;;;;;5095628;28;20457;-69
2021/12/08 06:34:48;;;;;;;10.50;4.25;;;4.70;99.90;;;;;;5095077;28;20044;-73
2021/12/08 06:37:36;;;;;;;8.65;4.20;;;4.80;99.90;;;;;;5096003;28;20096;-69
2021/12/08 06:40:16;;;;;;;6.90;3.55;;;4.70;99.90;;;;;;5094660;28;20040;-70
2021/12/08 06:42:46;;;;;;;9.80;3.83;;;4.70;99.90;;;;;;5095840;28;20086;-69
2021/12/08 06:45:16;;;;;;;9.88;3.85;;;4.70;99.90;;;;;;5093941;28;20396;-70
2021/12/08 06:47:43;;;;;;;11.27;3.97;;;4.70;99.90;;;;;;5092932;28;20043;-70
2021/12/08 06:50:25;;;;;;;11.70;4.10;;;4.70;99.90;;;;;;5092007;28;20058;-71
2021/12/08 06:52:50;;;;;;;8.30;3.67;;;4.70;99.90;;;;;;5089331;28;20043;-72
2021/12/08 06:55:33;;;;;;;8.20;3.80;;;4.70;99.90;;;;;;5094328;28;20036;-71
2021/12/08 06:58:14;;;;;;;7.72;3.33;;;4.70;99.90;;;;;;5062150;28;20116;-70
2021/12/08 07:03:31;;;;;;;9.88;3.17;;;4.70;99.90;;;;;;5093617;28;20357;-67
2021/12/08 07:06:09;;;;;;;8.00;3.40;;;4.70;99.90;;;;;;5094233;28;20032;-69
2021/12/08 07:08:57;;;;;;;10.20;3.53;;;4.70;99.90;;;;;;5075480;28;20068;-70
2021/12/08 07:11:24;;;;;;;6.97;3.05;;;4.70;99.90;;;;;;5073483;28;20124;-71
2021/12/08 07:13:53;;;;;;;6.53;2.97;;;4.80;99.90;;;;;;5086091;28;20040;-68
2021/12/08 07:16:24;;;;;;;8.23;3.15;;;4.70;99.90;;;;;;5094214;28;20051;-69
2021/12/08 07:19:00;;;;;;;6.43;2.47;;;4.70;99.90;;;;;;5093236;28;20044;-69
2021/12/08 07:21:32;;;;;;;7.07;2.67;;;4.70;99.90;;;;;;5094158;28;20433;-68
2021/12/08 07:24:04;;;;;;;7.88;2.85;;;4.80;99.90;;;;;;5094003;28;20081;-69
2021/12/08 07:26:34;;;;;;;8.55;2.85;;;4.70;99.90;;;;;;5094405;28;20094;-68
2021/12/08 07:29:01;;;;;;;9.05;3.63;;;4.70;99.90;;;;;;5094372;28;20075;-68
2021/12/08 07:31:28;;;;;;;6.47;2.47;;;4.70;99.90;;;;;;5093060;28;20058;-69
2021/12/08 07:33:54;;;;;;;11.75;3.20;;;4.70;99.90;;;;;;5092717;28;20055;-69
2021/12/08 07:36:22;;;;;;;9.15;3.10;;;4.70;99.90;;;;;;5093821;28;20040;-70
2021/12/08 07:38:52;;;;;;;8.38;3.00;;;4.70;99.90;;;;;;5094034;28;20080;-69
2021/12/08 07:41:28;;;;;;;9.75;2.88;;;4.70;99.90;;;;;;5093460;28;20036;-68
2021/12/08 07:43:57;;;;;;;11.55;3.42;;;4.70;99.90;;;;;;5093208;28;20483;-68
2021/12/08 07:46:35;;;;;;;6.70;3.10;;;4.70;99.90;;;;;;5093476;28;20036;-69
2021/12/08 07:49:13;;;;;;;8.32;2.80;;;4.70;99.90;;;;;;5094050;28;20055;-69
2021/12/08 07:51:45;;;;;;;7.97;2.53;;;4.70;99.90;;;;;;5094027;28;20048;-68
2021/12/08 07:54:11;;;;;;;7.95;2.60;;;4.80;99.90;;;;;;5093173;28;20044;-69
2021/12/08 07:56:40;;;;;;;8.60;2.92;;;4.80;99.90;;;;;;5093926;28;20032;-69
2021/12/08 07:59:09;;;;;;;9.95;2.80;;;4.80;99.90;;;;;;5083163;28;20032;-69
2021/12/08 08:01:41;;;;;;;9.45;2.53;;;4.80;99.90;;;;;;5072440;28;20182;-69
2021/12/08 08:04:10;;;;;;;7.65;2.40;;;4.80;99.90;;;;;;5086912;28;20097;-68
2021/12/08 08:06:41;;;;;;;10.23;2.53;;;4.70;99.90;;;;;;5093882;28;20135;-69
2021/12/08 08:09:12;;;;;;;11.30;2.38;;;4.70;99.90;;;;;;5093548;28;20445;-69
2021/12/08 08:11:42;;;;;;;9.25;2.28;;;4.70;99.90;;;;;;5093519;28;20639;-68
2021/12/08 08:14:11;;;;;;;10.63;2.42;;;4.70;99.90;;;;;;5093211;28;20338;-69
2021/12/08 08:16:38;;;;;;;10.57;3.38;;;4.80;99.90;;;;;;5093038;28;20135;-68
2021/12/08 08:19:12;;;;;;;14.75;3.05;;;4.80;99.90;;;;;;5093759;28;20150;-69
2021/12/08 08:21:44;;;;;;;8.27;2.30;;;4.90;99.90;;;;;;5076931;28;20401;-66
2021/12/08 08:24:11;;;;;;;8.77;2.65;;;4.80;99.90;;;;;;5074859;28;20106;-67
2021/12/08 08:26:39;;;;;;;9.88;2.70;;;4.90;99.90;;;;;;5073448;28;20069;-69
2021/12/08 08:29:06;;;;;;;15.73;2.45;;;5.00;99.90;;;;;;5073499;28;20358;-68
2021/12/08 08:31:47;;;;;;;13.23;3.35;;;4.90;99.90;;;;;;5073171;28;20052;-68
2021/12/08 08:34:12;;;;;;;8.43;2.72;;;4.90;99.90;;;;;;5087343;28;20059;-68
2021/12/08 08:36:42;;;;;;;10.48;2.80;;;4.90;99.90;;;;;;5093327;28;20421;-69
2021/12/08 08:39:15;;;;;;;8.90;2.45;;;5.00;99.90;;;;;;5093348;28;20036;-68
2021/12/08 08:42:01;;;;;;;9.00;2.33;;;5.00;99.90;;;;;;5093491;28;20079;-69
2021/12/08 08:44:26;;;;;;;13.50;2.42;;;5.00;99.90;;;;;;5092450;28;20531;-69
2021/12/08 08:46:54;;;;;;;12.38;2.67;;;5.00;99.90;;;;;;5093227;28;20089;-69
2021/12/08 08:49:27;;;;;;;15.63;2.67;;;5.00;99.90;;;;;;5093726;28;20430;-69
2021/12/08 08:52:01;;;;;;;13.90;2.70;;;5.00;99.90;;;;;;5093241;28;20043;-68
2021/12/08 08:54:37;;;;;;;9.02;2.90;;;4.90;99.90;;;;;;5092601;28;20047;-69
2021/12/08 08:57:12;;;;;;;11.00;2.70;;;4.90;99.90;;;;;;5089317;28;20036;-69
2021/12/08 08:59:45;;;;;;;8.10;2.38;;;5.00;99.90;;;;;;5091925;28;20414;-68
2021/12/08 09:02:18;;;;;;;9.93;2.55;;;5.00;99.90;;;;;;5092050;28;20040;-68
2021/12/08 09:04:54;;;;;;;9.60;2.42;;;4.90;99.90;;;;;;5091946;28;20040;-68
2021/12/08 09:07:24;;;;;;;9.32;2.13;;;4.90;99.90;;;;;;5093388;28;20055;-68
2021/12/08 09:09:54;;;;;;;11.57;2.58;;;5.00;99.90;;;;;;5094243;28;20115;-68
2021/12/08 09:12:36;;;;;;;10.65;2.60;;;5.00;99.90;;;;;;5096635;28;20441;-68
2021/12/08 09:15:35;;;;;;;8.02;1.90;;;5.00;99.90;;;;;;5096475;28;20048;-68
2021/12/08 09:18:11;;;;;;;9.82;2.42;;;5.00;99.90;;;;;;5096291;28;20549;-69
2021/12/08 09:21:11;;;;;;;9.57;2.88;;;5.00;99.90;;;;;;5096796;28;20338;-68
2021/12/08 09:23:45;;;;;;;8.10;2.13;;;5.00;99.90;;;;;;5095729;28;20429;-68
2021/12/08 09:26:15;;;;;;;13.27;2.67;;;5.10;99.90;;;;;;5096158;28;20528;-68
2021/12/08 09:28:52;;;;;;;8.18;2.45;;;5.00;99.90;;;;;;5076885;28;20115;-69
2021/12/08 09:31:27;;;;;;;11.80;2.72;;;5.10;99.90;;;;;;5076250;28;20036;-68
2021/12/08 09:34:07;;;;;;;10.15;2.53;;;5.10;99.90;;;;;;5086987;28;20048;-68
2021/12/08 09:36:41;;;;;;;11.00;2.60;;;5.20;99.90;;;;;;5080731;28;20040;-69
2021/12/08 09:39:24;;;;;;;8.80;2.47;;;5.20;99.90;;;;;;5088391;28;20367;-69
2021/12/08 09:42:12;;;;;;;8.45;2.28;;;5.30;99.90;;;;;;5087278;28;20044;-68
2021/12/08 09:44:48;;;;;;;9.20;2.25;;;5.30;99.90;;;;;;5087393;28;20445;-69
2021/12/08 09:47:15;;;;;;;10.15;2.33;;;5.40;99.90;;;;;;5080438;28;20072;-68
2021/12/08 09:49:42;;;;;;;12.75;2.85;;;5.40;99.90;;;;;;5095694;28;20050;-67
2021/12/08 09:52:08;;;;;;;9.48;2.05;;;5.50;99.90;;;;;;5096174;28;20089;-69
2021/12/08 09:54:37;;;;;;;10.52;2.60;;;5.60;99.90;;;;;;5095654;28;20044;-69
2021/12/08 09:57:07;;;;;;;9.55;2.10;;;5.60;99.90;;;;;;5090498;28;20060;-67
2021/12/08 09:59:34;;;;;;;9.90;2.78;;;5.70;99.90;;;;;;5081133;28;20056;-67
2021/12/08 10:02:03;;;;;;;11.63;2.33;;;5.70;99.90;;;;;;5081709;28;20036;-68
2021/12/08 10:04:29;;;;;;;13.25;2.72;;;5.70;99.90;;;;;;5091478;28;20032;-68
2021/12/08 10:06:59;;;;;;;7.93;2.22;;;5.80;99.90;;;;;;5095613;28;20044;-67
2021/12/08 10:09:25;;;;;;;8.85;2.22;;;5.80;99.90;;;;;;5096019;28;20089;-66
2021/12/08 10:11:54;;;;;;;10.20;2.60;;;5.90;99.90;;;;;;5095819;28;20392;-66
2021/12/08 10:14:21;;;;;;;8.43;2.20;;;5.90;99.90;;;;;;5095111;28;20369;-67
2021/12/08 10:16:50;;;;;;;16.95;3.10;;;6.00;99.90;;;;;;5095283;28;20063;-67
2021/12/08 10:19:17;;;;;;;10.30;2.83;;;6.00;99.90;;;;;;5094271;28;20159;-70
2021/12/08 10:21:43;;;;;;;7.72;2.17;;;6.10;99.90;;;;;;5095375;28;20360;-69
2021/12/08 10:24:22;;;;;;;9.35;3.08;;;6.10;99.90;;;;;;5094958;28;20036;-68
2021/12/08 10:26:50;;;;;;;8.73;3.05;;;6.20;99.90;;;;;;5095655;28;20094;-68
2021/12/08 10:29:27;;;;;;;7.97;2.15;;;6.30;99.90;;;;;;5095465;28;20495;-69
2021/12/08 10:31:54;;;;;;;8.38;1.98;;;6.20;99.90;;;;;;5095431;28;20083;-68
2021/12/08 10:34:25;;;;;;;9.52;2.10;;;6.20;99.90;;;;;;5094757;28;20055;-69
2021/12/08 10:36:56;;;;;;;9.07;2.25;;;6.20;99.90;;;;;;5095426;28;20062;-68
2021/12/08 10:39:33;;;;;;;7.47;2.15;;;6.30;99.90;;;;;;5094269;28;20043;-68
2021/12/08 10:42:06;;;;;;;8.52;2.58;;;6.30;99.90;;;;;;5094793;28;20453;-69
2021/12/08 10:44:57;;;;;;;12.40;2.55;;;6.40;99.90;;;;;;5094238;28;20483;-69
2021/12/08 10:47:22;;;;;;;6.45;2.05;;;6.40;99.90;;;;;;5081235;28;20509;-69
2021/12/08 10:55:20;;;;;;;10.68;2.50;;;6.40;99.90;;;;;;5093186;28;20048;-68
2021/12/08 10:57:53;;;;;;;7.13;2.00;;;6.40;99.90;;;;;;5094863;28;20048;-68
2021/12/08 11:00:39;;;;;;;9.00;2.00;;;6.50;99.90;;;;;;5093836;28;20051;-68
2021/12/08 11:03:09;;;;;;;11.68;2.35;;;6.50;99.90;;;;;;5094551;28;20042;-68
2021/12/08 11:05:39;;;;;;;7.85;2.20;;;6.60;99.90;;;;;;5076578;28;20036;-68
2021/12/08 11:08:16;;;;;;;7.28;2.08;;;6.60;99.90;;;;;;5074216;28;20495;-68
2021/12/08 11:11:00;;;;;;;7.65;2.28;;;6.60;99.90;;;;;;5074240;28;20051;-68
2021/12/08 11:13:28;;;;;;;11.05;2.40;;;6.70;99.90;;;;;;5080081;28;20062;-67
2021/12/08 11:16:08;;;;;;;7.85;2.13;;;6.70;99.90;;;;;;5094005;28;20522;-68
2021/12/08 11:18:39;;;;;;;11.07;2.90;;;6.70;99.90;;;;;;5094524;28;20083;-68
2021/12/08 11:21:15;;;;;;;10.13;2.75;;;6.70;99.90;;;;;;5094300;28;20395;-68
2021/12/08 11:23:46;;;;;;;8.55;2.38;;;6.60;99.90;;;;;;5093915;28;20119;-68
2021/12/08 11:26:38;;;;;;;8.07;2.30;;;6.70;99.90;;;;;;5076983;28;20043;-69
2021/12/08 11:29:28;;;;;;;8.00;2.22;;;6.70;99.90;;;;;;5084312;28;20078;-68
2021/12/08 11:31:55;;;;;;;9.05;2.65;;;6.70;99.90;;;;;;5094202;28;20093;-67
2021/12/08 11:34:26;;;;;;;10.10;2.10;;;6.70;99.90;;;;;;5093093;28;20513;-67
2021/12/08 11:36:56;;;;;;;10.18;2.33;;;6.70;99.90;;;;;;5093857;28;20051;-68
2021/12/08 11:39:27;;;;;;;8.05;2.08;;;6.70;99.90;;;;;;5093661;28;20115;-68
2021/12/08 11:41:56;;;;;;;9.85;2.25;;;6.70;99.90;;;;;;5094178;28;20036;-68
2021/12/08 11:44:25;;;;;;;11.32;2.80;;;6.70;99.90;;;;;;5093327;28;20456;-68
2021/12/08 11:46:57;;;;;;;8.98;1.92;;;6.70;99.90;;;;;;5093239;28;20138;-68
2021/12/08 11:49:24;;;;;;;10.07;2.40;;;6.70;99.90;;;;;;5093575;28;20506;-68
2021/12/08 11:51:56;;;;;;;8.10;2.20;;;6.70;99.90;;;;;;5082588;28;20044;-70
2021/12/08 11:54:32;;;;;;;10.50;2.22;;;6.70;99.90;;;;;;5086601;28;20044;-70
2021/12/08 11:57:04;;;;;;;8.60;2.05;;;6.70;99.90;;;;;;5092732;28;20052;-70
2021/12/08 11:59:30;;;;;;;9.80;2.08;;;6.70;99.90;;;;;;5092525;28;20109;-70
2021/12/08 12:01:55;;;;;;;6.45;2.00;;;6.70;99.90;;;;;;5079007;28;20040;-70
2021/12/08 12:04:21;;;;;;;7.72;2.40;;;6.70;99.90;;;;;;5086912;28;20051;-69
2021/12/08 12:06:47;;;;;;;6.93;1.90;;;6.70;99.90;;;;;;5093943;28;20124;-69
2021/12/08 12:09:12;;;;;;;8.20;2.00;;;6.60;99.90;;;;;;5092464;28;20114;-70
2021/12/08 12:11:38;;;;;;;8.18;2.25;;;6.60;99.90;;;;;;5093862;28;20036;-70
2021/12/08 12:14:04;;;;;;;5.65;2.03;;;6.60;99.90;;;;;;5092109;28;20055;-70
2021/12/08 12:16:30;;;;;;;8.80;2.80;;;6.60;99.90;;;;;;5093321;28;20063;-69
2021/12/08 12:19:03;;;;;;;9.30;2.65;;;6.60;99.90;;;;;;5093774;28;20044;-69
2021/12/08 12:21:37;;;;;;;7.82;2.63;;;6.60;99.90;;;;;;5093701;28;20394;-69
2021/12/08 12:24:32;;;;;;;10.75;2.58;;;6.60;99.90;;;;;;5093066;28;20161;-68
2021/12/08 12:27:03;;;;;;;;;;;6.60;99.90;;;;;;5094013;28;20043;-68
2021/12/08 12:29:44;;;;;;;9.00;2.40;;;6.70;99.90;;;;;;5093457;28;19926;-68
2021/12/08 12:32:31;;;;;;;9.85;2.25;;;6.70;99.90;;;;;;5093396;28;20048;-69
2021/12/08 12:35:09;;;;;;;11.45;2.50;;;6.70;99.90;;;;;;5092060;28;20181;-69
2021/12/08 12:37:36;;;;;;;7.32;2.47;;;6.80;99.90;;;;;;5093404;28;20177;-69
2021/12/08 12:40:07;;;;;;;10.88;2.80;;;6.80;99.90;;;;;;5092635;28;20036;-69
2021/12/08 12:42:49;;;;;;;8.95;2.83;;;6.80;99.90;;;;;;5093582;28;20062;-68
2021/12/08 12:45:15;;;;;;;7.65;2.85;;;6.80;99.90;;;;;;5094602;28;20069;-68
2021/12/08 12:48:02;;;;;;;7.75;2.83;;;6.80;99.90;;;;;;5096050;28;20063;-70
2021/12/08 12:50:27;;;;;;;8.75;3.20;;;6.80;99.90;;;;;;5097117;28;20047;-68
2021/12/08 12:52:56;;;;;;;9.02;2.80;;;6.80;99.90;;;;;;5097310;28;20035;-69
2021/12/08 12:55:38;;;;;;;7.57;2.85;;;6.80;99.90;;;;;;5097155;28;20062;-69
2021/12/08 12:58:03;;;;;;;9.20;2.83;;;6.70;99.90;;;;;;5095339;28;20507;-68
2021/12/08 13:00:49;;;;;;;7.05;2.78;;;6.70;99.90;;;;;;5076734;28;20045;-68
2021/12/08 13:03:45;;;;;;;7.82;3.42;;;6.70;99.90;;;;;;5080880;28;20074;-69
2021/12/08 13:06:14;;;;;;;9.18;2.83;;;6.70;99.90;;;;;;5097317;28;20447;-68
2021/12/08 13:08:50;;;;;;;10.98;2.78;;;6.70;99.90;;;;;;5096203;28;20040;-69
2021/12/08 13:11:22;;;;;;;9.07;2.90;;;6.70;99.90;;;;;;5091958;28;20037;-67
2021/12/08 13:13:50;;;;;;;5.90;2.50;;;6.70;99.90;;;;;;5076571;28;20082;-65
2021/12/08 13:16:27;;;;;;;7.40;2.38;;;6.70;99.90;;;;;;5075926;28;20048;-68
2021/12/08 13:19:05;;;;;;;8.25;2.22;;;6.80;99.90;;;;;;5076687;28;20076;-69
2021/12/08 13:21:37;;;;;;;6.70;2.70;;;6.80;99.90;;;;;;5091906;28;20106;-68
2021/12/08 13:24:03;;;;;;;8.75;2.60;;;6.90;99.90;;;;;;5078200;28;20037;-68
2021/12/08 13:26:30;;;;;;;7.65;2.97;;;6.80;99.90;;;;;;5089670;28;20697;-67
2021/12/08 13:29:17;;;;;;;11.40;2.78;;;6.90;99.90;;;;;;5096915;28;20086;-67
2021/12/08 13:31:59;;;;;;;7.32;2.65;;;6.80;99.90;;;;;;5096963;28;20052;-67
2021/12/08 13:34:33;;;;;;;8.45;2.67;;;6.70;99.90;;;;;;5096852;28;20131;-67
2021/12/08 13:37:12;;;;;;;6.95;2.45;;;6.70;99.90;;;;;;5097174;28;20040;-68
2021/12/08 13:39:42;;;;;;;7.85;2.95;;;6.70;99.90;;;;;;5097040;28;20044;-68
2021/12/08 13:42:15;;;;;;;8.82;2.30;;;6.70;99.90;;;;;;5097097;28;20032;-68
2021/12/08 13:44:53;;;;;;;9.90;2.90;;;6.70;99.90;;;;;;5096855;28;20047;-67
2021/12/08 13:47:27;;;;;;;9.95;3.00;;;6.60;99.90;;;;;;5097101;28;20051;-67
2021/12/08 13:49:58;;;;;;;;;;;6.60;99.90;;;;;;5097081;28;20115;-68
2021/12/08 13:52:32;;;;;;;8.73;2.47;;;6.50;99.90;;;;;;5096233;28;19923;-68
2021/12/08 13:55:20;;;;;;;7.03;2.38;;;6.50;99.90;;;;;;5094337;28;20039;-68
2021/12/08 13:57:53;;;;;;;10.00;2.63;;;6.50;99.90;;;;;;5096511;28;20349;-68
2021/12/08 14:00:32;;;;;;;9.38;2.88;;;6.60;99.90;;;;;;5095947;28;20074;-67
2021/12/08 14:02:58;;;;;;;9.00;2.55;;;6.60;99.90;;;;;;5095106;28;20042;-67